Time;durP1;ratioP1;P1;durP2;ratioP2;P2;SDS_P1;SDS_P2;PMS_P1;PMS_P2;Temp;Humidity;BMP_temperature;BMP_pressure;BME280_temperature;BME280_humidity;BME280_pressure;Samples;Min_cycle;Max_cycle;Signal;HPM_P1;HPM_P2
2022/04/17 00:00:29;;;;;;;;;;;20.10;99.90;;;;;;5065609;28;20398;-56
2022/04/17 00:02:56;;;;;;;;;;;20.10;99.90;;;;;;5054365;28;19935;-58
2022/04/17 00:05:23;;;;;;;;;;;20.10;99.90;;;;;;5069316;28;19932;-53
2022/04/17 00:07:50;;;;;;;;;;;20.10;99.90;;;;;;5061075;28;19925;-57
2022/04/17 00:10:17;;;;;;;;;;;20.10;99.90;;;;;;5060552;28;19920;-58
2022/04/17 00:12:47;;;;;;;;;;;20.00;99.90;;;;;;5052050;28;19932;-60
2022/04/17 00:15:18;;;;;;;;;;;20.00;99.90;;;;;;5064262;28;19927;-59
2022/04/17 00:17:45;;;;;;;;;;;20.00;99.90;;;;;;5055082;28;19920;-57
2022/04/17 00:20:13;;;;;;;;;;;20.00;99.90;;;;;;5060016;28;19928;-57
2022/04/17 00:22:41;;;;;;;;;;;20.00;99.90;;;;;;5054157;28;19924;-58
2022/04/17 00:25:08;;;;;;;;;;;20.00;99.90;;;;;;5056186;28;19931;-54
2022/04/17 00:27:35;;;;;;;;;;;20.00;99.90;;;;;;5065841;28;19924;-58
2022/04/17 00:30:03;;;;;;;;;;;20.00;99.90;;;;;;5054638;28;20449;-59
2022/04/17 00:32:31;;;;;;;;;;;20.00;99.90;;;;;;5039089;28;19928;-54
2022/04/17 00:34:58;;;;;;;;;;;20.00;99.90;;;;;;5050217;28;19925;-54
2022/04/17 00:37:26;;;;;;;;;;;20.00;99.90;;;;;;5052877;28;20110;-57
2022/04/17 00:39:53;;;;;;;;;;;20.00;99.90;;;;;;5051165;28;19924;-58
2022/04/17 00:42:20;;;;;;;;;;;20.00;99.90;;;;;;5069219;28;19924;-58
2022/04/17 00:44:47;;;;;;;;;;;20.00;99.90;;;;;;5058664;28;19930;-54
2022/04/17 00:47:16;;;;;;;;;;;20.00;99.90;;;;;;5061990;28;21447;-54
2022/04/17 00:49:44;;;;;;;;;;;20.00;99.90;;;;;;5049829;28;20279;-58
2022/04/17 00:52:11;;;;;;;;;;;20.00;99.90;;;;;;5056853;28;20309;-57
2022/04/17 00:54:42;;;;;;;;;;;20.00;99.90;;;;;;5049552;28;19921;-58
2022/04/17 00:57:10;;;;;;;;;;;20.00;99.90;;;;;;5057693;28;20398;-58
2022/04/17 00:59:42;;;;;;;;;;;20.00;99.90;;;;;;5060793;28;19948;-55
2022/04/17 01:02:09;;;;;;;;;;;20.00;99.90;;;;;;5063377;28;20400;-55
2022/04/17 01:04:37;;;;;;;;;;;20.00;99.90;;;;;;5051890;28;19920;-54
2022/04/17 01:07:04;;;;;;;;;;;20.00;99.90;;;;;;5057523;28;19924;-57
2022/04/17 01:09:32;;;;;;;;;;;19.90;99.90;;;;;;5049622;28;19924;-56
2022/04/17 01:12:00;;;;;;;;;;;19.90;99.90;;;;;;5057335;28;20785;-57
2022/04/17 01:14:27;;;;;;;;;;;19.90;99.90;;;;;;5058691;28;19927;-57
2022/04/17 01:16:55;;;;;;;;;;;20.00;99.90;;;;;;5054651;28;19932;-54
2022/04/17 01:19:23;;;;;;;;;;;20.00;99.90;;;;;;5048828;28;19935;-57
2022/04/17 01:21:51;;;;;;;;;;;20.00;99.90;;;;;;5055006;28;20329;-56
2022/04/17 01:27:05;;;;;;;;;;;19.90;99.90;;;;;;5057275;28;20612;-56
2022/04/17 01:29:32;;;;;;;;;;;19.90;99.90;;;;;;5048628;28;19929;-53
2022/04/17 01:32:00;;;;;;;;;;;19.90;99.90;;;;;;5057243;28;19936;-57
2022/04/17 01:34:27;;;;;;;;;;;19.90;99.90;;;;;;5047669;28;19947;-54
2022/04/17 01:36:55;;;;;;;;;;;19.90;99.90;;;;;;5057169;28;19947;-56
2022/04/17 01:39:22;;;;;;;;;;;19.90;99.90;;;;;;5049209;28;19935;-57
2022/04/17 01:41:50;;;;;;;;;;;19.90;99.90;;;;;;5065125;28;20460;-58
2022/04/17 01:44:18;;;;;;;;;;;19.90;99.90;;;;;;5058635;28;19920;-57
2022/04/17 01:46:45;;;;;;;;;;;19.90;99.90;;;;;;5058510;28;19924;-55
2022/04/17 01:49:15;;;;;;;;;;;19.90;99.90;;;;;;5058369;28;19944;-53
2022/04/17 01:51:44;;;;;;;;;;;19.90;99.90;;;;;;5049238;28;19921;-54
2022/04/17 01:54:12;;;;;;;;;;;19.90;99.90;;;;;;5056706;28;19932;-54
2022/04/17 01:56:39;;;;;;;;;;;19.90;99.90;;;;;;5060055;28;20488;-56
2022/04/17 01:59:07;;;;;;;;;;;19.90;99.90;;;;;;5048484;28;19924;-55
2022/04/17 02:01:34;;;;;;;;;;;19.90;99.90;;;;;;5062212;28;19920;-54
2022/04/17 02:04:02;;;;;;;;;;;19.90;99.90;;;;;;5054117;28;20255;-56
2022/04/17 02:06:30;;;;;;;;;;;19.90;99.90;;;;;;5058301;28;20304;-56
2022/04/17 02:08:57;;;;;;;;;;;19.90;99.90;;;;;;5050943;28;19925;-54
2022/04/17 02:11:25;;;;;;;;;;;19.90;99.90;;;;;;5052985;28;19931;-57
2022/04/17 02:13:53;;;;;;;;;;;19.90;99.90;;;;;;5057941;28;19929;-57
2022/04/17 02:16:20;;;;;;;;;;;19.80;99.90;;;;;;5059735;28;19928;-54
2022/04/17 02:18:47;;;;;;;;;;;19.80;99.90;;;;;;5054332;28;19936;-57
2022/04/17 02:21:15;;;;;;;;;;;19.80;99.90;;;;;;5046797;28;20313;-58
2022/04/17 02:23:43;;;;;;;;;;;19.80;99.90;;;;;;5050135;28;19920;-54
2022/04/17 02:26:11;;;;;;;;;;;19.80;99.90;;;;;;5062171;28;19947;-55
2022/04/17 02:28:40;;;;;;;;;;;19.80;99.90;;;;;;5060187;28;19924;-55
2022/04/17 02:31:07;;;;;;;;;;;19.80;99.90;;;;;;5051592;28;20398;-54
2022/04/17 02:33:36;;;;;;;;;;;19.80;99.90;;;;;;5048430;28;19924;-57
2022/04/17 02:36:04;;;;;;;;;;;19.80;99.90;;;;;;5050117;28;19928;-53
2022/04/17 02:38:32;;;;;;;;;;;19.80;99.90;;;;;;5059310;28;20345;-55
2022/04/17 02:40:59;;;;;;;;;;;19.80;99.90;;;;;;5056473;28;19931;-58
2022/04/17 02:43:26;;;;;;;;;;;19.80;99.90;;;;;;5050466;28;19936;-57
2022/04/17 02:45:53;;;;;;;;;;;19.80;99.90;;;;;;5031339;28;20385;-58
2022/04/17 02:48:21;;;;;;;;;;;19.80;99.90;;;;;;5058878;28;20306;-56
2022/04/17 02:50:49;;;;;;;;;;;19.80;99.90;;;;;;5058577;28;19921;-56
2022/04/17 02:53:16;;;;;;;;;;;19.80;99.90;;;;;;5047070;28;19928;-55
2022/04/17 02:55:44;;;;;;;;;;;19.80;99.90;;;;;;5053632;28;19935;-57
2022/04/17 02:58:11;;;;;;;;;;;19.80;99.90;;;;;;5050030;28;20028;-57
2022/04/17 03:06:11;;;;;;;;;;;19.70;99.90;;;;;;5059573;28;20321;-59
2022/04/17 03:08:39;;;;;;;;;;;19.80;99.90;;;;;;5048820;28;19931;-57
2022/04/17 03:11:06;;;;;;;;;;;19.80;99.90;;;;;;5056073;28;19928;-57
2022/04/17 03:13:33;;;;;;;;;;;19.70;99.90;;;;;;5061745;28;19929;-57
2022/04/17 03:16:00;;;;;;;;;;;19.80;99.90;;;;;;5057873;28;19925;-56
2022/04/17 03:18:28;;;;;;;;;;;19.70;99.90;;;;;;5060840;28;20365;-55
2022/04/17 03:20:55;;;;;;;;;;;19.70;99.90;;;;;;5059228;28;19961;-58
2022/04/17 03:23:22;;;;;;;;;;;19.80;99.90;;;;;;5046557;28;19998;-55
2022/04/17 03:25:49;;;;;;;;;;;19.70;99.90;;;;;;5047529;28;19924;-58
2022/04/17 03:28:16;;;;;;;;;;;19.70;99.90;;;;;;5057792;28;19929;-54
2022/04/17 03:30:43;;;;;;;;;;;19.70;99.90;;;;;;5055653;28;19929;-54
2022/04/17 03:33:12;;;;;;;;;;;19.70;99.90;;;;;;5047691;28;20299;-56
2022/04/17 03:35:39;;;;;;;;;;;19.70;99.90;;;;;;5046649;28;19920;-57
2022/04/17 03:38:07;;;;;;;;;;;19.70;99.90;;;;;;5056093;28;19941;-57
2022/04/17 03:40:34;;;;;;;;;;;19.70;99.90;;;;;;5055816;28;19928;-56
2022/04/17 03:43:02;;;;;;;;;;;19.70;99.90;;;;;;5062790;28;20397;-56
2022/04/17 03:45:29;;;;;;;;;;;19.70;99.90;;;;;;5059033;28;19935;-55
2022/04/17 03:47:56;;;;;;;;;;;19.70;99.90;;;;;;5054762;28;19924;-55
2022/04/17 03:50:23;;;;;;;;;;;19.70;99.90;;;;;;5059146;28;20397;-56
2022/04/17 03:52:50;;;;;;;;;;;19.70;99.90;;;;;;5054406;28;19924;-55
2022/04/17 03:55:17;;;;;;;;;;;19.70;99.90;;;;;;5059443;28;20318;-58
2022/04/17 03:57:44;;;;;;;;;;;19.70;99.90;;;;;;5053534;28;19928;-59
2022/04/17 04:00:12;;;;;;;;;;;19.80;99.90;;;;;;5061063;28;19921;-57
2022/04/17 04:02:40;;;;;;;;;;;19.80;99.90;;;;;;5057796;28;19931;-55
2022/04/17 04:05:08;;;;;;;;;;;19.80;99.90;;;;;;5046309;28;19932;-56
2022/04/17 04:07:35;;;;;;;;;;;19.90;99.90;;;;;;5054750;28;19925;-58
2022/04/17 04:10:03;;;;;;;;;;;19.90;99.90;;;;;;5046555;28;19944;-56
2022/04/17 04:12:31;;;;;;;;;;;19.90;99.90;;;;;;5056547;28;19920;-56
2022/04/17 04:14:58;;;;;;;;;;;19.90;99.90;;;;;;5056386;28;19920;-53
2022/04/17 04:17:25;;;;;;;;;;;19.90;99.90;;;;;;5050058;28;19948;-56
2022/04/17 04:19:52;;;;;;;;;;;19.90;99.90;;;;;;5050221;28;19928;-55
2022/04/17 04:22:20;;;;;;;;;;;19.90;99.90;;;;;;5049625;28;19924;-56
2022/04/17 04:24:48;;;;;;;;;;;19.90;99.90;;;;;;5056252;28;20412;-52
2022/04/17 04:30:01;;;;;;;;;;;19.90;99.90;;;;;;5054130;28;19925;-55
2022/04/17 04:32:28;;;;;;;;;;;19.90;99.90;;;;;;5054626;28;19920;-54
2022/04/17 04:35:02;;;;;;;;;;;19.90;99.90;;;;;;5057506;28;19936;-54
2022/04/17 04:37:29;;;;;;;;;;;19.90;99.90;;;;;;5050513;28;20420;-57
2022/04/17 04:39:57;;;;;;;;;;;19.90;99.90;;;;;;5064327;28;19950;-58
2022/04/17 04:42:24;;;;;;;;;;;19.90;99.90;;;;;;5049190;28;20409;-56
2022/04/17 04:46:06;;;;;;;;;;;19.90;99.90;;;;;;5058035;28;20385;-56
2022/04/17 04:47:38;;;;;;;;;;;19.90;99.90;;;;;;5050971;28;19924;-57
2022/04/17 04:50:05;;;;;;;;;;;19.90;99.90;;;;;;5056603;28;20295;-58
2022/04/17 04:52:36;;;;;;;;;;;19.90;99.90;;;;;;5048724;28;19927;-56
2022/04/17 04:55:04;;;;;;;;;;;19.90;99.90;;;;;;5064577;28;20278;-54
2022/04/17 04:57:31;;;;;;;;;;;19.80;99.90;;;;;;5053052;28;19920;-57
2022/04/17 04:59:58;;;;;;;;;;;19.80;99.90;;;;;;5053059;28;19924;-58
2022/04/17 05:02:25;;;;;;;;;;;19.80;99.90;;;;;;5053845;28;19925;-58
2022/04/17 05:04:52;;;;;;;;;;;19.80;99.90;;;;;;5055648;28;20003;-58
2022/04/17 05:07:19;;;;;;;;;;;19.80;99.90;;;;;;5063818;28;19924;-55
2022/04/17 05:09:46;;;;;;;;;;;19.80;99.90;;;;;;5060714;28;20229;-57
2022/04/17 05:12:14;;;;;;;;;;;19.80;99.90;;;;;;5050251;28;20430;-54
2022/04/17 05:14:41;;;;;;;;;;;19.80;99.90;;;;;;5051373;28;20412;-53
2022/04/17 05:17:09;;;;;;;;;;;19.80;99.90;;;;;;5049393;28;19931;-57
2022/04/17 05:19:38;;;;;;;;;;;19.80;99.90;;;;;;5055625;28;19920;-56
2022/04/17 05:22:10;;;;;;;;;;;19.80;99.90;;;;;;5058005;28;19928;-55
2022/04/17 05:24:38;;;;;;;;;;;19.80;99.90;;;;;;5052577;28;20347;-53
2022/04/17 05:27:05;;;;;;;;;;;19.80;99.90;;;;;;5054777;28;19925;-56
2022/04/17 05:29:32;;;;;;;;;;;19.80;99.90;;;;;;5049548;28;19928;-56
2022/04/17 05:32:00;;;;;;;;;;;19.80;99.90;;;;;;5054171;28;19955;-57
2022/04/17 05:34:27;;;;;;;;;;;19.80;99.90;;;;;;5050173;28;20384;-58
2022/04/17 05:36:54;;;;;;;;;;;19.70;99.90;;;;;;5050723;28;19931;-58
2022/04/17 05:39:22;;;;;;;;;;;19.70;99.90;;;;;;5052625;28;19928;-57
2022/04/17 05:41:50;;;;;;;;;;;19.30;92.60;;;;;;5063708;28;19931;-56
2022/04/17 05:44:17;;;;;;;;;;;18.40;84.40;;;;;;5071577;28;20030;-58
2022/04/17 05:46:44;;;;;;;;;;;17.90;86.50;;;;;;5070731;28;19936;-57
2022/04/17 05:49:11;;;;;;;;;;;17.60;84.20;;;;;;5059573;28;19924;-58
2022/04/17 05:51:38;;;;;;;;;;;17.40;83.40;;;;;;5043073;28;19931;-58
2022/04/17 05:54:07;;;;;;;;;;;17.40;83.50;;;;;;5052279;28;19931;-57
2022/04/17 05:56:37;;;;;;;;;;;17.30;82.50;;;;;;5061153;28;19947;-57
2022/04/17 05:59:05;;;;;;;;;;;17.40;92.20;;;;;;5062830;28;20212;-61
2022/04/17 06:01:32;;;;;;;;;;;18.00;92.30;;;;;;5053132;28;19932;-60
2022/04/17 06:04:02;;;;;;;;;;;18.40;92.10;;;;;;5051782;28;19924;-60
2022/04/17 06:06:29;;;;;;;;;;;18.70;91.90;;;;;;5055137;28;19929;-61
2022/04/17 06:08:56;;;;;;;;;;;18.90;92.00;;;;;;5054181;28;19924;-62
2022/04/17 06:11:23;;;;;;;;;;;19.00;92.20;;;;;;5052946;28;19925;-61
2022/04/17 06:13:50;;;;;;;;;;;19.10;92.50;;;;;;5061105;28;19935;-60
2022/04/17 06:16:17;;;;;;;;;;;19.20;92.70;;;;;;5059925;28;19920;-62
2022/04/17 06:18:45;;;;;;;;;;;19.20;92.80;;;;;;5058501;28;19931;-61
2022/04/17 06:21:12;;;;;;;;;;;19.20;93.60;;;;;;5054585;28;19920;-61
2022/04/17 06:23:40;;;;;;;;;;;19.30;93.90;;;;;;5055779;28;19924;-54
2022/04/17 06:26:09;;;;;;;;;;;19.30;94.30;;;;;;5055985;28;19920;-57
2022/04/17 06:28:37;;;;;;;;;;;19.30;94.70;;;;;;5047758;28;20237;-57
2022/04/17 06:31:07;;;;;;;;;;;19.30;94.90;;;;;;5039916;28;20728;-59
2022/04/17 06:33:34;;;;;;;;;;;19.30;95.20;;;;;;5053306;28;20448;-57
2022/04/17 06:36:01;;;;;;;;;;;19.40;95.40;;;;;;5068917;28;19925;-63
2022/04/17 06:38:28;;;;;;;;;;;19.30;96.10;;;;;;5062452;28;20298;-64
2022/04/17 06:40:55;;;;;;;;;;;19.40;97.10;;;;;;5047835;28;19925;-61
2022/04/17 06:43:23;;;;;;;;;;;19.40;97.60;;;;;;5050966;28;20393;-66
2022/04/17 06:45:50;;;;;;;;;;;19.50;97.50;;;;;;5061872;28;20417;-65
2022/04/17 06:48:19;;;;;;;;;;;19.40;96.50;;;;;;5057827;28;20412;-62
2022/04/17 06:50:47;;;;;;;;;;;19.40;96.20;;;;;;5054375;28;19931;-62
2022/04/17 06:53:15;;;;;;;;;;;19.40;95.20;;;;;;5053572;28;19929;-64
2022/04/17 06:55:42;;;;;;;;;;;19.40;95.10;;;;;;5055347;28;19931;-65
2022/04/17 06:58:09;;;;;;;;;;;19.40;94.80;;;;;;5051299;28;19935;-63
2022/04/17 07:00:37;;;;;;;;;;;19.40;94.30;;;;;;5065912;28;19951;-63
2022/04/17 07:03:04;;;;;;;;;;;19.30;93.70;;;;;;5053100;28;20485;-62
2022/04/17 07:05:31;;;;;;;;;;;19.40;93.50;;;;;;5062271;28;19924;-65
2022/04/17 07:08:00;;;;;;;;;;;19.40;93.20;;;;;;5051824;28;20203;-66
2022/04/17 07:10:28;;;;;;;;;;;19.30;93.10;;;;;;5047547;28;19920;-65
2022/04/17 07:12:55;;;;;;;;;;;19.40;92.70;;;;;;5060185;28;19924;-64
2022/04/17 07:15:24;;;;;;;;;;;19.30;92.50;;;;;;5052225;28;20431;-60
2022/04/17 07:17:52;;;;;;;;;;;19.40;92.30;;;;;;5054321;28;20306;-61
2022/04/17 07:20:19;;;;;;;;;;;19.30;91.70;;;;;;5056703;28;19924;-60
2022/04/17 07:22:49;;;;;;;;;;;19.30;91.10;;;;;;5053544;28;19924;-60
2022/04/17 07:25:19;;;;;;;;;;;19.30;91.00;;;;;;5047004;28;19935;-63
2022/04/17 07:27:48;;;;;;;;;;;19.30;91.00;;;;;;5051571;28;20511;-62
2022/04/17 07:30:19;;;;;;;;;;;19.30;91.20;;;;;;5046713;28;19920;-57
2022/04/17 07:32:48;;;;;;;;;;;19.30;90.80;;;;;;5053441;28;20405;-59
2022/04/17 07:35:17;;;;;;;;;;;19.30;90.50;;;;;;5057655;28;20385;-60
2022/04/17 07:37:48;;;;;;;;;;;19.30;90.20;;;;;;5059468;28;19951;-64
2022/04/17 07:40:21;;;;;;;;;;;19.30;90.20;;;;;;5046288;28;19929;-63
2022/04/17 07:42:49;;;;;;;;;;;19.30;90.10;;;;;;5060267;28;19951;-62
2022/04/17 07:45:17;;;;;;;;;;;19.40;90.00;;;;;;5051976;28;19929;-60
2022/04/17 07:47:45;;;;;;;;;;;19.40;90.00;;;;;;5057447;28;19934;-64
2022/04/17 07:50:14;;;;;;;;;;;19.40;90.20;;;;;;5055008;28;19931;-63
2022/04/17 07:52:41;;;;;;;;;;;19.40;90.40;;;;;;5052969;28;19925;-63
2022/04/17 07:55:11;;;;;;;;;;;19.50;90.20;;;;;;5063201;28;20301;-64
2022/04/17 08:00:51;;;;;;;;;;;19.50;90.30;;;;;;5019272;28;19924;-63
2022/04/17 08:03:24;;;;;;;;;;;19.50;90.20;;;;;;5054293;28;19921;-59
2022/04/17 08:05:52;;;;;;;;;;;19.50;90.50;;;;;;5065598;28;20328;-62
2022/04/17 08:08:19;;;;;;;;;;;19.50;90.20;;;;;;5061480;28;19924;-63
2022/04/17 08:10:46;;;;;;;;;;;19.50;90.20;;;;;;5058739;28;19931;-63
2022/04/17 08:13:14;;;;;;;;;;;19.60;90.50;;;;;;5062335;28;19924;-62
2022/04/17 08:15:42;;;;;;;;;;;19.60;90.20;;;;;;5053834;28;19921;-64
2022/04/17 08:18:09;;;;;;;;;;;19.60;90.40;;;;;;5063408;28;20271;-59
2022/04/17 08:20:36;;;;;;;;;;;19.60;90.50;;;;;;5061122;28;19928;-58
2022/04/17 08:23:03;;;;;;;;;;;19.60;90.10;;;;;;5061102;28;20342;-58
2022/04/17 08:25:32;;;;;;;;;;;19.60;90.00;;;;;;5064092;28;19920;-57
2022/04/17 08:28:00;;;;;;;;;;;19.60;89.70;;;;;;5063147;28;19939;-56
2022/04/17 08:30:31;;;;;;;;;;;19.50;88.70;;;;;;5057770;28;19932;-58
2022/04/17 08:32:59;;;;;;;;;;;19.50;88.00;;;;;;5043517;28;19924;-56
2022/04/17 08:35:26;;;;;;;;;;;19.50;87.60;;;;;;5052029;28;19920;-55
2022/04/17 08:38:02;;;;;;;;;;;19.50;87.70;;;;;;5058715;28;19935;-58
2022/04/17 08:40:30;;;;;;;;;;;19.60;88.40;;;;;;5058908;28;19939;-59
2022/04/17 08:42:58;;;;;;;;;;;19.60;89.10;;;;;;5039327;28;19928;-55
2022/04/17 08:45:25;;;;;;;;;;;19.60;90.50;;;;;;5059127;28;19936;-59
2022/04/17 08:47:54;;;;;;;;;;;19.60;91.10;;;;;;5060027;28;19963;-57
2022/04/17 08:50:21;;;;;;;;;;;19.70;91.20;;;;;;5054898;28;20317;-57
2022/04/17 08:52:50;;;;;;;;;;;19.70;91.20;;;;;;5049623;28;19928;-57
2022/04/17 08:55:17;;;;;;;;;;;19.60;91.60;;;;;;5059012;28;20350;-56
2022/04/17 08:57:44;;;;;;;;;;;19.60;91.90;;;;;;5054192;28;19936;-57
2022/04/17 09:00:14;;;;;;;;;;;19.70;92.40;;;;;;5054610;28;19928;-59
2022/04/17 09:02:41;;;;;;;;;;;19.70;92.60;;;;;;5046300;28;19987;-56
2022/04/17 09:05:10;;;;;;;;;;;19.70;93.00;;;;;;5051722;28;19947;-57
2022/04/17 09:07:47;;;;;;;;;;;19.70;93.30;;;;;;5053682;28;19967;-52
2022/04/17 09:10:24;;;;;;;;;;;19.80;94.50;;;;;;5061089;28;20365;-54
2022/04/17 09:12:55;;;;;;;;;;;19.80;94.20;;;;;;5055075;28;20412;-52
2022/04/17 09:15:23;;;;;;;;;;;19.80;94.90;;;;;;5062766;28;19932;-57
2022/04/17 09:17:50;;;;;;;;;;;19.80;95.20;;;;;;5065642;28;19924;-56
2022/04/17 09:20:19;;;;;;;;;;;19.80;95.80;;;;;;5058843;28;19920;-54
2022/04/17 09:22:46;;;;;;;;;;;19.80;95.70;;;;;;5051314;28;19924;-56
2022/04/17 09:25:14;;;;;;;;;;;19.90;95.10;;;;;;5059526;28;20407;-57
2022/04/17 09:27:54;;;;;;;;;;;19.90;94.90;;;;;;5055118;28;19924;-57
2022/04/17 09:30:26;;;;;;;;;;;19.90;95.30;;;;;;5059946;28;19928;-55
2022/04/17 09:32:53;;;;;;;;;;;19.90;95.90;;;;;;5057642;28;19931;-55
2022/04/17 09:35:24;;;;;;;;;;;19.80;97.00;;;;;;5071407;28;19931;-57
2022/04/17 09:37:59;;;;;;;;;;;19.80;97.50;;;;;;5061233;28;19925;-57
2022/04/17 09:40:26;;;;;;;;;;;19.90;97.60;;;;;;5051220;28;19931;-53
2022/04/17 09:43:29;;;;;;;;;;;19.90;99.90;;;;;;5050062;28;19935;-57
2022/04/17 09:46:00;;;;;;;;;;;20.00;99.90;;;;;;4982310;28;19925;-57
2022/04/17 09:48:28;;;;;;;;;;;20.10;99.90;;;;;;5044756;28;19921;-54
2022/04/17 09:50:56;;;;;;;;;;;20.20;99.90;;;;;;5059177;28;20265;-55
2022/04/17 09:53:29;;;;;;;;;;;20.20;99.90;;;;;;5055784;28;19987;-56
2022/04/17 09:56:06;;;;;;;;;;;20.10;99.70;;;;;;5057203;28;19947;-57
2022/04/17 09:58:34;;;;;;;;;;;20.10;99.90;;;;;;5052668;28;19920;-54
2022/04/17 10:01:03;;;;;;;;;;;20.10;99.90;;;;;;5060533;28;20413;-59
2022/04/17 10:03:30;;;;;;;;;;;20.10;99.90;;;;;;5040021;28;19924;-59
2022/04/17 10:05:57;;;;;;;;;;;20.20;99.90;;;;;;5061980;28;20012;-55
2022/04/17 10:08:26;;;;;;;;;;;20.20;99.90;;;;;;5042404;28;19951;-57
2022/04/17 10:10:53;;;;;;;;;;;20.20;99.90;;;;;;5048957;28;19932;-56
2022/04/17 10:13:20;;;;;;;;;;;20.20;99.90;;;;;;5063721;28;20397;-59
2022/04/17 10:15:49;;;;;;;;;;;20.20;99.90;;;;;;5050818;28;19943;-58
2022/04/17 10:18:17;;;;;;;;;;;20.20;99.90;;;;;;5049935;28;20410;-57
2022/04/17 10:20:44;;;;;;;;;;;20.10;99.90;;;;;;5052996;28;19935;-62
2022/04/17 10:23:13;;;;;;;;;;;20.00;99.90;;;;;;5051142;28;20574;-58
2022/04/17 10:25:42;;;;;;;;;;;20.00;99.90;;;;;;5050165;28;19924;-56
2022/04/17 10:28:09;;;;;;;;;;;19.90;99.90;;;;;;5062629;28;19947;-58
2022/04/17 10:30:43;;;;;;;;;;;19.90;99.90;;;;;;5049108;28;19921;-58
2022/04/17 10:33:28;;;;;;;;;;;19.90;99.90;;;;;;5047306;28;19940;-60
2022/04/17 10:36:04;;;;;;;;;;;19.80;99.90;;;;;;5060023;28;19925;-56
2022/04/17 10:38:43;;;;;;;;;;;19.80;99.90;;;;;;5055532;28;19929;-59
2022/04/17 10:41:12;;;;;;;;;;;19.80;99.70;;;;;;5055355;28;20476;-56
2022/04/17 10:43:42;;;;;;;;;;;19.80;98.60;;;;;;5045207;28;19924;-59
2022/04/17 10:46:11;;;;;;;;;;;19.90;98.20;;;;;;5051004;28;19925;-55
2022/04/17 10:48:48;;;;;;;;;;;19.90;98.40;;;;;;5043612;28;20421;-64
2022/04/17 10:51:25;;;;;;;;;;;19.90;98.40;;;;;;5048771;28;19924;-59
2022/04/17 10:54:03;;;;;;;;;;;19.90;97.50;;;;;;5049683;28;20468;-65
2022/04/17 10:56:35;;;;;;;;;;;19.90;97.70;;;;;;5047920;28;20376;-66
2022/04/17 10:59:06;;;;;;;;;;;20.00;97.90;;;;;;5047999;28;20389;-65
2022/04/17 11:01:45;;;;;;;;;;;20.10;98.20;;;;;;5059312;28;20320;-60
2022/04/17 11:04:18;;;;;;;;;;;20.10;98.80;;;;;;5052214;28;19929;-61
2022/04/17 11:06:46;;;;;;;;;;;20.20;99.30;;;;;;5053579;28;19936;-60
2022/04/17 11:09:18;;;;;;;;;;;20.30;99.40;;;;;;5052425;28;19935;-63
2022/04/17 11:11:46;;;;;;;;;;;20.30;99.40;;;;;;5062967;28;20222;-63
2022/04/17 11:14:13;;;;;;;;;;;20.30;99.60;;;;;;5060478;28;20641;-61
2022/04/17 11:16:51;;;;;;;;;;;20.30;99.80;;;;;;5052016;28;19925;-64
2022/04/17 11:19:19;;;;;;;;;;;20.30;99.90;;;;;;5058300;28;19927;-59
2022/04/17 11:21:50;;;;;;;;;;;20.30;99.90;;;;;;5062907;28;19951;-61
2022/04/17 11:24:18;;;;;;;;;;;20.30;99.90;;;;;;5061635;28;19924;-61
2022/04/17 11:27:05;;;;;;;;;;;20.30;99.90;;;;;;5063767;28;19924;-67
2022/04/17 11:29:33;;;;;;;;;;;20.30;99.90;;;;;;5064066;28;20003;-59
2022/04/17 11:32:01;;;;;;;;;;;20.30;99.90;;;;;;5057943;28;19935;-63
2022/04/17 11:34:41;;;;;;;;;;;20.30;99.90;;;;;;5048615;28;19920;-66
2022/04/17 11:37:08;;;;;;;;;;;20.30;99.90;;;;;;5058908;28;19931;-56
2022/04/17 11:39:36;;;;;;;;;;;20.30;99.90;;;;;;5056348;28;19996;-62
2022/04/17 11:42:08;;;;;;;;;;;20.30;99.90;;;;;;5061113;28;19936;-56
2022/04/17 11:44:36;;;;;;;;;;;20.30;99.90;;;;;;5059990;28;19925;-61
2022/04/17 11:47:04;;;;;;;;;;;20.30;99.90;;;;;;5060851;28;20421;-59
2022/04/17 11:49:32;;;;;;;;;;;20.30;99.90;;;;;;5063940;28;20331;-58
2022/04/17 11:52:10;;;;;;;;;;;20.20;99.90;;;;;;5048098;28;19996;-60
2022/04/17 11:54:41;;;;;;;;;;;20.30;99.90;;;;;;5058827;28;20074;-59
2022/04/17 11:57:08;;;;;;;;;;;20.30;99.90;;;;;;5055062;28;19932;-60
2022/04/17 11:59:45;;;;;;;;;;;20.20;99.50;;;;;;5055225;28;19929;-60
2022/04/17 12:02:14;;;;;;;;;;;20.10;98.50;;;;;;5051549;28;19931;-59
2022/04/17 12:04:45;;;;;;;;;;;20.10;98.20;;;;;;5054677;28;19920;-59
2022/04/17 12:07:17;;;;;;;;;;;20.00;97.80;;;;;;5054233;28;19946;-58
2022/04/17 12:09:46;;;;;;;;;;;20.00;97.60;;;;;;5056494;28;19959;-58
2022/04/17 12:12:14;;;;;;;;;;;19.90;96.70;;;;;;5055547;28;20591;-58
2022/04/17 12:14:42;;;;;;;;;;;19.90;96.30;;;;;;5048407;28;19925;-58
2022/04/17 12:17:12;;;;;;;;;;;19.90;95.20;;;;;;5065427;28;19940;-58
2022/04/17 12:19:47;;;;;;;;;;;19.90;94.70;;;;;;5049096;28;19971;-57
2022/04/17 12:22:17;;;;;;;;;;;19.90;94.50;;;;;;5046251;28;19925;-58
2022/04/17 12:24:44;;;;;;;;;;;19.90;94.50;;;;;;5061268;28;19981;-55
2022/04/17 12:27:13;;;;;;;;;;;19.90;94.60;;;;;;5066511;28;19920;-57
2022/04/17 12:29:41;;;;;;;;;;;19.90;94.70;;;;;;5059295;28;19924;-56
2022/04/17 12:32:19;;;;;;;;;;;19.90;94.70;;;;;;5057810;28;19931;-57
2022/04/17 12:34:56;;;;;;;;;;;19.90;94.70;;;;;;5060953;28;20663;-56
2022/04/17 12:37:26;;;;;;;;;;;19.90;94.70;;;;;;5068296;28;20397;-55
2022/04/17 12:40:05;;;;;;;;;;;19.90;94.90;;;;;;5049026;28;19947;-58
2022/04/17 12:42:32;;;;;;;;;;;19.90;94.90;;;;;;5049778;28;19940;-57
2022/04/17 12:44:59;;;;;;;;;;;19.90;94.90;;;;;;5069697;28;20427;-57
2022/04/17 12:47:27;;;;;;;;;;;19.90;94.80;;;;;;5062108;28;19971;-58
2022/04/17 12:50:01;;;;;;;;;;;19.90;94.70;;;;;;5049171;28;19920;-58
2022/04/17 12:52:29;;;;;;;;;;;19.90;94.80;;;;;;5049074;28;19929;-58
2022/04/17 12:54:56;;;;;;;;;;;19.90;94.70;;;;;;5049709;28;20004;-58
2022/04/17 12:57:23;;;;;;;;;;;19.90;94.70;;;;;;5061349;28;19931;-59
2022/04/17 12:59:51;;;;;;;;;;;19.90;94.80;;;;;;5050353;28;19920;-60
2022/04/17 13:02:22;;;;;;;;;;;20.00;94.90;;;;;;5067491;28;20381;-57
2022/04/17 13:04:52;;;;;;;;;;;20.00;94.90;;;;;;5066941;28;19927;-55
2022/04/17 13:07:19;;;;;;;;;;;20.00;95.00;;;;;;5049102;28;19932;-58
2022/04/17 13:09:53;;;;;;;;;;;20.00;95.00;;;;;;5060646;28;19924;-57
2022/04/17 13:12:40;;;;;;;;;;;20.00;95.20;;;;;;5067791;28;19943;-58
2022/04/17 13:15:08;;;;;;;;;;;20.00;95.20;;;;;;5056786;28;19969;-58
2022/04/17 13:17:48;;;;;;;;;;;20.00;95.30;;;;;;5045205;28;19940;-55
2022/04/17 13:20:16;;;;;;;;;;;20.10;95.40;;;;;;5056960;28;19927;-55
2022/04/17 13:22:44;;;;;;;;;;;20.10;95.40;;;;;;5061563;28;19928;-56
2022/04/17 13:25:12;;;;;;;;;;;20.10;95.40;;;;;;5033643;28;20307;-56
2022/04/17 13:27:39;;;;;;;;;;;20.10;95.40;;;;;;5054694;28;19936;-56
2022/04/17 13:30:07;;;;;;;;;;;20.20;95.40;;;;;;5066113;28;19920;-57
2022/04/17 13:32:34;;;;;;;;;;;20.20;95.30;;;;;;5057127;28;19925;-58
2022/04/17 13:35:01;;;;;;;;;;;20.20;95.20;;;;;;5050734;28;19924;-57
2022/04/17 13:40:15;;;;;;;;;;;20.30;95.20;;;;;;5063151;28;19932;-57
2022/04/17 13:42:42;;;;;;;;;;;20.30;95.10;;;;;;5048551;28;19920;-54
2022/04/17 13:45:09;;;;;;;;;;;20.40;94.90;;;;;;5057291;28;19925;-56
2022/04/17 13:47:37;;;;;;;;;;;20.40;94.80;;;;;;5048028;28;19928;-55
2022/04/17 13:50:06;;;;;;;;;;;20.40;94.70;;;;;;5058881;28;19935;-58
2022/04/17 13:52:38;;;;;;;;;;;20.50;94.70;;;;;;5066011;28;19927;-58
2022/04/17 13:55:06;;;;;;;;;;;20.50;94.50;;;;;;5057401;28;20358;-60
2022/04/17 13:57:33;;;;;;;;;;;20.60;94.50;;;;;;5052924;28;20258;-56
2022/04/17 14:00:00;;;;;;;;;;;20.60;94.40;;;;;;5057019;28;20246;-55
2022/04/17 14:02:27;;;;;;;;;;;20.60;94.10;;;;;;5053673;28;19920;-59
2022/04/17 14:04:54;;;;;;;;;;;20.60;93.20;;;;;;5050488;28;20432;-58
2022/04/17 14:07:22;;;;;;;;;;;20.60;92.10;;;;;;5055113;28;20416;-57
2022/04/17 14:09:49;;;;;;;;;;;20.60;91.20;;;;;;5056113;28;20384;-57
2022/04/17 14:12:17;;;;;;;;;;;20.70;90.80;;;;;;5051140;28;20355;-56
2022/04/17 14:14:44;;;;;;;;;;;20.70;90.60;;;;;;5059033;28;19928;-60
2022/04/17 14:17:12;;;;;;;;;;;20.70;90.30;;;;;;5058452;28;20385;-59
2022/04/17 14:19:41;;;;;;;;;;;20.70;90.10;;;;;;5064961;28;19931;-59
2022/04/17 14:22:08;;;;;;;;;;;20.70;87.20;;;;;;5065640;28;20224;-59
2022/04/17 14:24:35;;;;;;;;;;;20.70;87.30;;;;;;5060488;28;19924;-61
2022/04/17 14:27:02;;;;;;;;;;;20.70;86.40;;;;;;5050667;28;19925;-59
2022/04/17 14:29:29;;;;;;;;;;;20.80;85.70;;;;;;5061090;28;20384;-60
2022/04/17 14:31:56;;;;;;;;;;;20.80;85.20;;;;;;5051013;28;20381;-58
2022/04/17 14:34:24;;;;;;;;;;;20.80;84.00;;;;;;5059070;28;19936;-56
2022/04/17 14:36:51;;;;;;;;;;;20.80;83.20;;;;;;5054236;28;19928;-55
2022/04/17 14:39:18;;;;;;;;;;;20.90;82.80;;;;;;5050324;28;19951;-58
2022/04/17 14:41:45;;;;;;;;;;;20.90;82.10;;;;;;5066001;28;20002;-54